Terminal Aerodrome Forecast
Issued by NWS Charleston, SC

Home | Current Version | Previous Version | Text Only | Print | Product List | Glossary On
Versions: 1 2 3 4 5 6 7 8 9 10 11 12 13 14
730
FTUS42 KCHS 042328
TAFCHS
TAF
KCHS 042328Z 0500/0524 07009KT P6SM OVC035
     FM050500 16009KT 6SM -RA SCT007 OVC025 WS015/21040KT
     FM050900 27008KT 5SM -RA BR SCT003 OVC007
     FM051600 36006KT 6SM -DZ SCT009 OVC015=

USA.gov is the U.S. government's official web portal to all federal, state and local government web resources and services.